Limon, CO (80826)

4:30 PM MDT on August 03, 2015 (GMT -0600)
Limon, CO | | Change Station
CLOSE
Current Station
Personal Weather Station
Location: Limon, CO
Elevation: 5361 ft
Nearby Weather Stations
Active Advisory: Areal Flood Advisory

Elev 5361 ft 39.27 °N, 103.68 °W | Updated 2 minutes ago

Light Rain
Light Rain
63.8 °F
Feels Like 63.8 °F
N
4.0
Wind Variable Wind from SW
Gusts 12.0 mph

Today
High -- | Low -- °F
--% Chance of Precip.
Yesterday
High -- | Low -- °F
Precip. -- in
5:56 AM 8:04 PM
Waning Gibbous, 83% visible
Pressure 29.97 in
Visibility 10.0 miles
Clouds Overcast 10000 ft
Dew Point 59 °F
Humidity 84%
Rainfall 0.04 in
Snow Depth Not available.
UV 2 out of 12
Pollen 6.50 out of 12
Air Quality Not available.
Flu Activity Not available.
METAR KLIC 032155Z AUTO 17009KT 10SM -RA OVC100 18/13 A3015 RMK AO2 PK WND 13029/2056 LTG DSNT E AND SE SLP149 P0000 T01830128

More Conditions Fewer Conditions

Pressure 29.97 in
Visibility 10.0 miles
Clouds Overcast 10000 ft
Dew Point 59 °F
Humidity 84%
Rainfall 0.04 in
Snow Depth Not available.
UV 2 out of 12
Pollen 6.50 out of 12
Air Quality Not available.
Flu Activity Not available.
METAR KLIC 032155Z AUTO 17009KT 10SM -RA OVC100 18/13 A3015 RMK AO2 PK WND 13029/2056 LTG DSNT E AND SE SLP149 P0000 T01830128

More Conditions Fewer Conditions

10-Day Weather Forecast

×

Almanac

Astronomy

Aug. 03, 2015 Rise Set
Actual Time
Civil Twilight
Nautical Twilight
Astronomical Twilight
Moon
Length of Visible Light
Length of Day
Tomorrow will be .
, % of the Moon is Illuminated

Today's Extremes

State Highs State Lows

Community

WunderPhotos

Upload Photos

1,843,785 photos uploaded!

WunderBlogs® & News

Nearby

Air Quality

  Air Quality AQ Index Pollutant
Not available.

Snow Depth

Station Depth Elevation

Earthquake Activity

City Distance Mag. Time & Date
Minimum magnitude displayed is 2.5.

Coastal Water Temperatures

Place Temperature

Stations

Nearby Weather Stations

Station Location Temp. Windchill Dew Point Humidity Wind Precip. Elev Updated Type
                   
Areal Flood Advisory
Statement as of 2:47 PM MDT on August 03, 2015

The National Weather Service in Denver has issued a

* Flood Advisory for...
southeastern Lincoln County in east central Colorado...

* until 445 PM MDT

* at 246 PM MDT... a thunderstorm producing heavy rain was located 6
miles east of Punkin Center... or 30 miles south of Limon... moving
north at 10 mph.

* Some locations that will experience flooding include...
Punkin Center and Karval.

Precautionary/preparedness actions...

Excessive runoff from heavy rainfall will cause flooding of small
creeks and streams... as well as farm and country roads. Do not
attempt to travel across flooded roads. Find alternate routes.


Lat... Lon 3869 10372 3887 10376 3887 10372 3902 10372
      3901 10328 3868 10334


Rtg